Wetterdaten: Samstag, 01.09.2012
Datum Zeit Temperatur Luftfeuchte Luftdruck Regen Wind Richtung Richtung Sonnenschein Taupunkt Windchill
01.09.2012 00:03 11,6 C 82 % 1021,7 hPa 0,0 l/m 11,5 km/h (2 Bft) W-NW 285 0 min 8,6 C 8,6 C
01.09.2012 00:08 11,5 C 82 % 1021,7 hPa 0,0 l/m 12,8 km/h (3 Bft) W-NW 300 0 min 8,5 C 7,9 C
01.09.2012 00:14 11,5 C 82 % 1021,7 hPa 0,0 l/m 12,5 km/h (3 Bft) NW 315 0 min 8,5 C 8,0 C
01.09.2012 00:19 11,4 C 81 % 1021,7 hPa 0,0 l/m 7,6 km/h (2 Bft) W-NW 285 0 min 8,3 C 10,6 C
01.09.2012 00:24 11,4 C 82 % 1021,7 hPa 0,0 l/m 9,4 km/h (2 Bft) W-NW 285 0 min 8,4 C 9,5 C
01.09.2012 00:29 11,5 C 82 % 1021,7 hPa 0,0 l/m 9,3 km/h (2 Bft) W 280 0 min 8,5 C 9,6 C
01.09.2012 00:34 11,6 C 82 % 1021,7 hPa 0,0 l/m 8,3 km/h (2 Bft) W 265 0 min 8,6 C 10,3 C
01.09.2012 00:39 11,6 C 82 % 1021,7 hPa 0,0 l/m 7,6 km/h (2 Bft) W 280 0 min 8,6 C 10,8 C
01.09.2012 00:44 11,6 C 82 % 1021,7 hPa 0,0 l/m 11,1 km/h (2 Bft) W-NW 300 0 min 8,6 C 8,8 C
01.09.2012 00:48 11,6 C 82 % 1021,7 hPa 0,0 l/m 6,4 km/h (2 Bft) W 260 0 min 8,6 C 11,6 C
01.09.2012 00:53 11,5 C 82 % 1021,7 hPa 0,0 l/m 5,2 km/h (1 Bft) W 260 0 min 8,5 C 11,5 C
01.09.2012 00:58 11,5 C 82 % 1021,7 hPa 0,0 l/m 9,6 km/h (2 Bft) W 265 0 min 8,5 C 9,5 C
01.09.2012 01:03 11,6 C 82 % 1022,7 hPa 0,0 l/m 5,6 km/h (1 Bft) W-SW 250 0 min 8,6 C 11,6 C
01.09.2012 01:09 11,6 C 82 % 1022,7 hPa 0,0 l/m 8,0 km/h (2 Bft) W 270 0 min 8,6 C 10,5 C
01.09.2012 01:14 11,5 C 82 % 1022,7 hPa 0,0 l/m 8,2 km/h (2 Bft) W 270 0 min 8,5 C 10,3 C
01.09.2012 01:19 11,5 C 83 % 1022,7 hPa 0,0 l/m 6,4 km/h (2 Bft) W 270 0 min 8,7 C 11,5 C
01.09.2012 01:24 11,5 C 82 % 1022,7 hPa 0,0 l/m 6,1 km/h (2 Bft) W-SW 255 0 min 8,5 C 11,5 C
01.09.2012 01:28 11,5 C 82 % 1022,7 hPa 0,0 l/m 7,3 km/h (2 Bft) W 265 0 min 8,5 C 10,9 C
01.09.2012 01:33 11,5 C 82 % 1022,7 hPa 0,0 l/m 6,1 km/h (2 Bft) W-SW 240 0 min 8,5 C 11,5 C
01.09.2012 01:38 11,6 C 83 % 1022,7 hPa 0,0 l/m 7,7 km/h (2 Bft) W-SW 250 0 min 8,8 C 10,7 C
01.09.2012 01:43 11,6 C 83 % 1022,7 hPa 0,0 l/m 7,5 km/h (2 Bft) W-SW 255 0 min 8,8 C 10,9 C
01.09.2012 01:48 11,6 C 83 % 1022,7 hPa 0,0 l/m 5,0 km/h (1 Bft) W-SW 245 0 min 8,8 C 11,6 C
01.09.2012 01:53 11,6 C 83 % 1022,7 hPa 0,0 l/m 5,4 km/h (1 Bft) W 260 0 min 8,8 C 11,6 C
01.09.2012 01:58 11,6 C 83 % 1022,7 hPa 0,0 l/m 5,5 km/h (1 Bft) W-SW 250 0 min 8,8 C 11,6 C
01.09.2012 02:03 11,6 C 82 % 1022,7 hPa 0,0 l/m 5,7 km/h (1 Bft) W-SW 250 0 min 8,6 C 11,6 C
01.09.2012 02:08 11,6 C 82 % 1022,7 hPa 0,0 l/m 6,5 km/h (2 Bft) W-SW 250 0 min 8,6 C 11,6 C
01.09.2012 02:13 11,7 C 82 % 1022,7 hPa 0,0 l/m 0,0 km/h (0 Bft) W-SW 245 0 min 8,7 C 11,7 C
01.09.2012 02:18 11,7 C 82 % 1022,7 hPa 0,0 l/m 6,0 km/h (2 Bft) W-SW 255 0 min 8,7 C 11,7 C
01.09.2012 02:23 11,7 C 82 % 1022,7 hPa 0,0 l/m 0,0 km/h (0 Bft) W 265 0 min 8,7 C 11,7 C
01.09.2012 02:28 11,8 C 82 % 1022,7 hPa 0,0 l/m 0,1 km/h (0 Bft) W 270 0 min 8,8 C 11,8 C
01.09.2012 02:33 11,8 C 82 % 1022,7 hPa 0,0 l/m 7,0 km/h (2 Bft) W-NW 285 0 min 8,8 C 11,4 C
01.09.2012 02:38 11,7 C 81 % 1022,7 hPa 0,0 l/m 6,0 km/h (2 Bft) W-NW 290 0 min 8,5 C 11,7 C
01.09.2012 02:43 11,7 C 81 % 1022,7 hPa 0,0 l/m 9,4 km/h (2 Bft) NW 315 0 min 8,5 C 9,8 C
01.09.2012 02:48 11,7 C 81 % 1022,7 hPa 0,0 l/m 11,2 km/h (2 Bft) NW 320 0 min 8,5 C 8,9 C
01.09.2012 02:53 11,7 C 81 % 1022,7 hPa 0,0 l/m 5,9 km/h (2 Bft) W 265 0 min 8,5 C 11,7 C
01.09.2012 02:58 11,7 C 81 % 1022,7 hPa 0,0 l/m 6,1 km/h (2 Bft) W-NW 295 0 min 8,5 C 11,7 C
01.09.2012 03:03 11,7 C 81 % 1022,7 hPa 0,0 l/m 0,0 km/h (0 Bft) W 270 0 min 8,5 C 11,7 C
01.09.2012 03:08 11,8 C 81 % 1022,7 hPa 0,0 l/m 0,3 km/h (0 Bft) W 275 0 min 8,6 C 11,8 C
01.09.2012 03:13 11,7 C 81 % 1022,7 hPa 0,0 l/m 6,2 km/h (2 Bft) W 260 0 min 8,5 C 11,7 C
01.09.2012 03:18 11,7 C 81 % 1022,7 hPa 0,0 l/m 0,6 km/h (0 Bft) W-NW 285 0 min 8,5 C 11,7 C
01.09.2012 03:23 11,7 C 81 % 1022,7 hPa 0,0 l/m 0,0 km/h (0 Bft) W-NW 300 0 min 8,5 C 11,7 C
01.09.2012 03:28 11,7 C 81 % 1022,7 hPa 0,0 l/m 0,0 km/h (0 Bft) W 280 0 min 8,5 C 11,7 C
01.09.2012 03:33 11,7 C 81 % 1022,7 hPa 0,0 l/m 1,2 km/h (1 Bft) W 275 0 min 8,5 C 11,7 C
01.09.2012 03:38 11,8 C 81 % 1022,7 hPa 0,0 l/m 0,7 km/h (0 Bft) W 260 0 min 8,6 C 11,8 C
01.09.2012 03:43 11,8 C 81 % 1022,7 hPa 0,0 l/m 0,0 km/h (0 Bft) W 260 0 min 8,6 C 11,8 C
01.09.2012 03:49 11,8 C 80 % 1022,7 hPa 0,0 l/m 0,0 km/h (0 Bft) W-SW 255 0 min 8,5 C 11,8 C
01.09.2012 03:54 11,8 C 80 % 1022,7 hPa 0,0 l/m 0,0 km/h (0 Bft) W-SW 255 0 min 8,5 C 11,8 C
01.09.2012 03:59 11,8 C 80 % 1022,7 hPa 0,0 l/m 0,0 km/h (0 Bft) W-SW 255 0 min 8,5 C 11,8 C
01.09.2012 04:04 11,8 C 80 % 1022,7 hPa 0,0 l/m 0,7 km/h (0 Bft) W-NW 285 0 min 8,5 C 11,8 C
01.09.2012 04:09 11,8 C 80 % 1022,7 hPa 0,0 l/m 0,0 km/h (0 Bft) W-NW 295 0 min 8,5 C 11,8 C
01.09.2012 04:14 11,8 C 80 % 1022,7 hPa 0,0 l/m 0,0 km/h (0 Bft) W-NW 300 0 min 8,5 C 11,8 C
01.09.2012 04:19 11,8 C 79 % 1022,7 hPa 0,0 l/m 0,3 km/h (0 Bft) W-NW 295 0 min 8,3 C 11,8 C
01.09.2012 04:24 11,8 C 79 % 1022,7 hPa 0,0 l/m 0,0 km/h (0 Bft) W-NW 285 0 min 8,3 C 11,8 C
01.09.2012 04:29 11,8 C 79 % 1023,7 hPa 0,0 l/m 0,0 km/h (0 Bft) W-NW 285 0 min 8,3 C 11,8 C
01.09.2012 04:34 11,8 C 79 % 1023,7 hPa 0,0 l/m 0,4 km/h (0 Bft) W 270 0 min 8,3 C 11,8 C
01.09.2012 04:39 11,8 C 79 % 1023,7 hPa 0,0 l/m 0,0 km/h (0 Bft) NW 315 0 min 8,3 C 11,8 C
01.09.2012 04:44 11,8 C 79 % 1023,7 hPa 0,0 l/m 4,4 km/h (1 Bft) W 275 0 min 8,3 C 11,8 C
01.09.2012 04:49 11,8 C 79 % 1023,7 hPa 0,0 l/m 0,0 km/h (0 Bft) W 265 0 min 8,3 C 11,8 C
01.09.2012 04:54 11,8 C 79 % 1023,7 hPa 0,0 l/m 0,0 km/h (0 Bft) W-NW 300 0 min 8,3 C 11,8 C
01.09.2012 04:59 11,8 C 79 % 1023,7 hPa 0,0 l/m 0,0 km/h (0 Bft) W-NW 300 0 min 8,3 C 11,8 C
01.09.2012 05:04 11,7 C 79 % 1023,7 hPa 0,0 l/m 0,0 km/h (0 Bft) W-NW 285 0 min 8,2 C 11,7 C
01.09.2012 05:09 11,7 C 78 % 1023,7 hPa 0,0 l/m 0,2 km/h (0 Bft) W 270 0 min 8,0 C 11,7 C
01.09.2012 05:14 11,6 C 78 % 1023,7 hPa 0,0 l/m 0,0 km/h (0 Bft) W 280 0 min 7,9 C 11,6 C
01.09.2012 05:19 11,5 C 78 % 1023,7 hPa 0,0 l/m 0,1 km/h (0 Bft) W 275 0 min 7,8 C 11,5 C
01.09.2012 05:24 11,5 C 78 % 1023,7 hPa 0,0 l/m 0,0 km/h (0 Bft) W 280 0 min 7,8 C 11,5 C
01.09.2012 05:29 11,5 C 78 % 1023,7 hPa 0,0 l/m 0,0 km/h (0 Bft) W 275 0 min 7,8 C 11,5 C
01.09.2012 05:34 11,4 C 78 % 1023,7 hPa 0,0 l/m 0,0 km/h (0 Bft) W-NW 295 0 min 7,7 C 11,4 C
01.09.2012 05:39 11,4 C 78 % 1023,7 hPa 0,0 l/m 0,0 km/h (0 Bft) W-NW 290 0 min 7,7 C 11,4 C
01.09.2012 05:44 11,3 C 78 % 1023,7 hPa 0,0 l/m 0,0 km/h (0 Bft) W-NW 295 0 min 7,6 C 11,3 C
01.09.2012 05:49 11,2 C 78 % 1023,7 hPa 0,0 l/m 0,0 km/h (0 Bft) W-NW 295 0 min 7,5 C 11,2 C
01.09.2012 05:54 11,1 C 78 % 1023,7 hPa 0,0 l/m 0,8 km/h (0 Bft) W 275 0 min 7,4 C 11,1 C
01.09.2012 05:59 11,1 C 78 % 1023,7 hPa 0,0 l/m 0,6 km/h (0 Bft) W 260 0 min 7,4 C 11,1 C
01.09.2012 06:04 10,9 C 79 % 1023,7 hPa 0,0 l/m 0,0 km/h (0 Bft) W 260 0 min 7,4 C 10,9 C
01.09.2012 06:09 10,8 C 79 % 1023,7 hPa 0,0 l/m 0,0 km/h (0 Bft) W 260 0 min 7,3 C 10,8 C
01.09.2012 06:14 10,8 C 79 % 1023,7 hPa 0,0 l/m 0,0 km/h (0 Bft) W-NW 285 0 min 7,3 C 10,8 C
01.09.2012 06:19 10,8 C 79 % 1023,7 hPa 0,0 l/m 0,0 km/h (0 Bft) W-NW 285 0 min 7,3 C 10,8 C
01.09.2012 06:24 10,7 C 79 % 1023,7 hPa 0,0 l/m 0,0 km/h (0 Bft) W-NW 285 0 min 7,2 C 10,7 C
01.09.2012 06:29 10,7 C 79 % 1023,7 hPa 0,0 l/m 0,0 km/h (0 Bft) W 280 0 min 7,2 C 10,7 C
01.09.2012 06:34 10,7 C 79 % 1023,7 hPa 0,0 l/m 0,0 km/h (0 Bft) W-NW 285 0 min 7,2 C 10,7 C
01.09.2012 06:39 10,7 C 79 % 1023,7 hPa 0,0 l/m 9,9 km/h (2 Bft) W-NW 295 0 min 7,2 C 8,4 C
01.09.2012 06:44 10,7 C 79 % 1023,7 hPa 0,0 l/m 0,7 km/h (0 Bft) W 280 0 min 7,2 C 10,7 C
01.09.2012 06:49 10,7 C 79 % 1023,7 hPa 0,0 l/m 0,0 km/h (0 Bft) W 280 0 min 7,2 C 10,7 C
01.09.2012 06:54 10,7 C 78 % 1023,7 hPa 0,0 l/m 0,0 km/h (0 Bft) W 280 0 min 7,0 C 10,7 C
01.09.2012 06:59 10,7 C 78 % 1023,7 hPa 0,0 l/m 0,0 km/h (0 Bft) W 280 0 min 7,0 C 10,7 C
01.09.2012 07:04 10,7 C 78 % 1023,7 hPa 0,0 l/m 0,0 km/h (0 Bft) W-NW 285 0 min 7,0 C 10,7 C
01.09.2012 07:09 10,7 C 78 % 1023,7 hPa 0,0 l/m 0,0 km/h (0 Bft) W-NW 290 0 min 7,0 C 10,7 C
01.09.2012 07:14 10,7 C 79 % 1023,7 hPa 0,0 l/m 4,6 km/h (1 Bft) W 260 0 min 7,2 C 10,7 C
01.09.2012 07:19 10,7 C 79 % 1023,7 hPa 0,0 l/m 0,0 km/h (0 Bft) W 260 0 min 7,2 C 10,7 C
01.09.2012 07:24 11,4 C 80 % 1023,7 hPa 0,0 l/m 0,0 km/h (0 Bft) W 260 0 min 8,1 C 11,4 C
01.09.2012 07:29 12,3 C 81 % 1023,7 hPa 0,0 l/m 0,0 km/h (0 Bft) W 260 0 min 9,1 C 12,3 C
01.09.2012 07:34 12,7 C 81 % 1023,7 hPa 0,0 l/m 0,0 km/h (0 Bft) W 260 0 min 9,5 C 12,7 C
01.09.2012 07:39 13,0 C 80 % 1023,7 hPa 0,0 l/m 0,7 km/h (0 Bft) SW 225 0 min 9,6 C 13,0 C
01.09.2012 07:43 13,4 C 80 % 1023,7 hPa 0,0 l/m 0,3 km/h (0 Bft) SW 225 0 min 10,0 C 13,4 C
01.09.2012 07:48 13,4 C 80 % 1023,7 hPa 0,0 l/m 3,6 km/h (1 Bft) SW 225 0 min 10,0 C 13,4 C
01.09.2012 07:53 14,1 C 79 % 1023,7 hPa 0,0 l/m 0,0 km/h (0 Bft) SW 230 0 min 10,5 C 14,1 C
01.09.2012 07:58 14,7 C 78 % 1023,7 hPa 0,0 l/m 0,0 km/h (0 Bft) SW 230 0 min 10,9 C 14,7 C
01.09.2012 08:03 14,6 C 76 % 1023,7 hPa 0,0 l/m 0,0 km/h (0 Bft) SW 225 0 min 10,4 C 14,6 C
01.09.2012 08:08 14,3 C 75 % 1023,7 hPa 0,0 l/m 0,0 km/h (0 Bft) SW 225 0 min 9,9 C 14,3 C
01.09.2012 08:13 14,0 C 74 % 1023,7 hPa 0,0 l/m 0,0 km/h (0 Bft) SW 230 0 min 9,4 C 14,0 C
01.09.2012 08:18 13,9 C 74 % 1023,7 hPa 0,0 l/m 0,0 km/h (0 Bft) SW 230 0 min 9,3 C 13,9 C
01.09.2012 08:23 13,8 C 74 % 1023,7 hPa 0,0 l/m 0,0 km/h (0 Bft) S 175 0 min 9,2 C 13,8 C
01.09.2012 08:28 13,9 C 74 % 1023,7 hPa 0,0 l/m 0,0 km/h (0 Bft) S 175 0 min 9,3 C 13,9 C
01.09.2012 08:33 14,2 C 73 % 1023,7 hPa 0,0 l/m 0,0 km/h (0 Bft) S 175 0 min 9,4 C 14,2 C
01.09.2012 08:38 14,4 C 73 % 1023,7 hPa 0,0 l/m 0,1 km/h (0 Bft) S 185 0 min 9,6 C 14,4 C
01.09.2012 08:43 14,6 C 72 % 1023,7 hPa 0,0 l/m 0,0 km/h (0 Bft) S-SW 200 0 min 9,6 C 14,6 C
01.09.2012 08:48 15,0 C 71 % 1023,7 hPa 0,0 l/m 0,0 km/h (0 Bft) S-SW 195 0 min 9,8 C 15,0 C
01.09.2012 08:53 15,0 C 71 % 1023,7 hPa 0,0 l/m 0,1 km/h (0 Bft) NO 50 0 min 9,8 C 15,0 C
01.09.2012 08:58 15,4 C 71 % 1023,7 hPa 0,0 l/m 0,0 km/h (0 Bft) O-NO 65 0 min 10,2 C 15,4 C
01.09.2012 09:03 15,5 C 71 % 1023,7 hPa 0,0 l/m 0,0 km/h (0 Bft) SO 125 0 min 10,3 C 15,5 C
01.09.2012 09:08 15,8 C 70 % 1023,7 hPa 0,0 l/m 0,0 km/h (0 Bft) SO 125 0 min 10,3 C 15,8 C
01.09.2012 09:13 16,0 C 69 % 1023,7 hPa 0,0 l/m 0,1 km/h (0 Bft) O-SO 120 0 min 10,3 C 16,0 C
01.09.2012 09:18 16,1 C 69 % 1024,7 hPa 0,0 l/m 0,0 km/h (0 Bft) O 95 0 min 10,4 C 16,1 C
01.09.2012 09:24 16,3 C 68 % 1024,7 hPa 0,0 l/m 0,0 km/h (0 Bft) O-SO 105 0 min 10,4 C 16,3 C
01.09.2012 09:29 16,3 C 67 % 1024,7 hPa 0,0 l/m 0,2 km/h (0 Bft) SO 135 0 min 10,2 C 16,3 C
01.09.2012 09:34 16,0 C 67 % 1024,7 hPa 0,0 l/m 0,0 km/h (0 Bft) O-SO 120 0 min 9,9 C 16,0 C
01.09.2012 09:39 16,2 C 67 % 1024,7 hPa 0,0 l/m 0,0 km/h (0 Bft) O-SO 105 0 min 10,1 C 16,2 C
01.09.2012 09:43 16,4 C 67 % 1024,7 hPa 0,0 l/m 0,0 km/h (0 Bft) O-SO 105 0 min 10,3 C 16,4 C
01.09.2012 09:48 16,6 C 67 % 1024,7 hPa 0,0 l/m 0,0 km/h (0 Bft) O 95 0 min 10,4 C 16,6 C
01.09.2012 09:53 16,7 C 65 % 1024,7 hPa 0,0 l/m 0,0 km/h (0 Bft) O-SO 105 0 min 10,1 C 16,7 C
01.09.2012 09:59 16,8 C 65 % 1024,7 hPa 0,0 l/m 0,0 km/h (0 Bft) W-NW 285 0 min 10,2 C 16,8 C
01.09.2012 10:04 17,1 C 65 % 1024,7 hPa 0,0 l/m 0,3 km/h (0 Bft) NW 305 0 min 10,5 C 17,1 C
01.09.2012 10:08 17,4 C 64 % 1024,7 hPa 0,0 l/m 0,3 km/h (0 Bft) NW 305 0 min 10,5 C 17,4 C
01.09.2012 10:13 17,4 C 61 % 1024,7 hPa 0,0 l/m 0,1 km/h (0 Bft) N 5 0 min 9,8 C 17,4 C
01.09.2012 10:18 17,5 C 61 % 1024,7 hPa 0,0 l/m 0,0 km/h (0 Bft) N-NO 25 0 min 9,9 C 17,5 C
01.09.2012 10:24 17,6 C 60 % 1024,7 hPa 0,0 l/m 0,0 km/h (0 Bft) NO 35 0 min 9,7 C 17,6 C
01.09.2012 10:29 17,7 C 60 % 1024,7 hPa 0,0 l/m 0,0 km/h (0 Bft) N 350 0 min 9,8 C 17,7 C
01.09.2012 10:34 17,9 C 60 % 1024,7 hPa 0,0 l/m 0,1 km/h (0 Bft) N 360 0 min 10,0 C 17,9 C
01.09.2012 10:39 18,3 C 59 % 1024,7 hPa 0,0 l/m 0,1 km/h (0 Bft) N 360 0 min 10,1 C 18,3 C
01.09.2012 10:44 18,3 C 58 % 1024,7 hPa 0,0 l/m 0,0 km/h (0 Bft) N 350 0 min 9,9 C 18,3 C
01.09.2012 10:49 18,2 C 58 % 1024,7 hPa 0,0 l/m 0,0 km/h (0 Bft) NW 305 0 min 9,8 C 18,2 C
01.09.2012 10:54 18,2 C 57 % 1024,7 hPa 0,0 l/m 0,3 km/h (0 Bft) S-SW 195 0 min 9,5 C 18,2 C
01.09.2012 10:59 17,8 C 57 % 1024,7 hPa 0,0 l/m 0,1 km/h (0 Bft) O-SO 110 0 min 9,2 C 17,8 C
01.09.2012 11:04 17,9 C 58 % 1024,7 hPa 0,0 l/m 0,0 km/h (0 Bft) SO 130 0 min 9,5 C 17,9 C
01.09.2012 11:09 17,9 C 58 % 1024,7 hPa 0,0 l/m 0,0 km/h (0 Bft) SO 140 0 min 9,5 C 17,9 C
01.09.2012 11:14 17,5 C 58 % 1024,7 hPa 0,0 l/m 0,0 km/h (0 Bft) SO 125 0 min 9,1 C 17,5 C
01.09.2012 11:19 17,1 C 58 % 1024,7 hPa 0,0 l/m 0,0 km/h (0 Bft) SO 125 0 min 8,8 C 17,1 C
01.09.2012 11:24 16,8 C 59 % 1024,7 hPa 0,0 l/m 0,0 km/h (0 Bft) NO 55 0 min 8,7 C 16,8 C
01.09.2012 11:29 16,7 C 60 % 1024,7 hPa 0,0 l/m 0,0 km/h (0 Bft) N-NO 25 0 min 8,9 C 16,7 C
01.09.2012 11:34 17,1 C 58 % 1024,7 hPa 0,0 l/m 0,0 km/h (0 Bft) N-NO 25 0 min 8,8 C 17,1 C
01.09.2012 11:39 17,0 C 57 % 1024,7 hPa 0,0 l/m 0,5 km/h (0 Bft) O 85 0 min 8,4 C 17,0 C
01.09.2012 11:44 17,2 C 57 % 1024,7 hPa 0,0 l/m 0,2 km/h (0 Bft) S-SO 160 0 min 8,6 C 17,2 C
01.09.2012 11:49 18,5 C 55 % 1024,7 hPa 0,0 l/m 11,1 km/h (2 Bft) SW 230 0 min 9,3 C 16,6 C
01.09.2012 11:54 19,4 C 55 % 1024,7 hPa 0,0 l/m 11,5 km/h (2 Bft) S 170 0 min 10,1 C 17,5 C
01.09.2012 11:58 19,4 C 55 % 1024,7 hPa 0,0 l/m 0,0 km/h (0 Bft) O-SO 115 0 min 10,1 C 19,4 C
01.09.2012 12:03 19,9 C 54 % 1024,7 hPa 0,0 l/m 0,1 km/h (0 Bft) S-SO 150 0 min 10,3 C 19,9 C
01.09.2012 12:08 19,6 C 54 % 1024,7 hPa 0,0 l/m 0,0 km/h (0 Bft) W 265 0 min 10,0 C 19,6 C
01.09.2012 12:13 19,4 C 53 % 1024,7 hPa 0,0 l/m 0,0 km/h (0 Bft) W 275 0 min 9,6 C 19,4 C
01.09.2012 12:18 19,1 C 54 % 1024,7 hPa 0,0 l/m 0,0 km/h (0 Bft) W 270 0 min 9,6 C 19,1 C
01.09.2012 12:23 19,1 C 54 % 1024,7 hPa 0,0 l/m 0,0 km/h (0 Bft) W 280 0 min 9,6 C 19,1 C
01.09.2012 12:28 19,2 C 55 % 1024,7 hPa 0,0 l/m 0,2 km/h (0 Bft) W 275 0 min 9,9 C 19,2 C
01.09.2012 12:33 19,3 C 54 % 1024,7 hPa 0,0 l/m 0,1 km/h (0 Bft) W 270 0 min 9,8 C 19,3 C
01.09.2012 12:38 19,3 C 54 % 1024,7 hPa 0,0 l/m 0,0 km/h (0 Bft) W-SW 250 0 min 9,8 C 19,3 C
01.09.2012 12:43 19,5 C 54 % 1024,7 hPa 0,0 l/m 0,1 km/h (0 Bft) SO 125 0 min 9,9 C 19,5 C
01.09.2012 12:48 19,5 C 52 % 1024,7 hPa 0,0 l/m 0,1 km/h (0 Bft) SO 130 0 min 9,4 C 19,5 C
01.09.2012 12:53 20,0 C 53 % 1024,7 hPa 0,0 l/m 0,0 km/h (0 Bft) O 80 0 min 10,1 C 20,0 C
01.09.2012 12:58 20,3 C 51 % 1024,7 hPa 0,0 l/m 0,1 km/h (0 Bft) S-SO 155 0 min 9,8 C 20,3 C
01.09.2012 13:03 20,8 C 52 % 1024,7 hPa 0,0 l/m 0,1 km/h (0 Bft) S-SO 165 0 min 10,6 C 20,8 C
01.09.2012 13:08 21,1 C 46 % 1024,7 hPa 0,0 l/m 15,0 km/h (3 Bft) W-SW 250 0 min 9,0 C 18,6 C
01.09.2012 13:13 20,8 C 48 % 1024,7 hPa 0,0 l/m 2,2 km/h (1 Bft) W-SW 250 0 min 9,4 C 20,8 C
01.09.2012 13:18 20,4 C 47 % 1024,7 hPa 0,0 l/m 0,5 km/h (0 Bft) S 185 0 min 8,7 C 20,4 C
01.09.2012 13:23 20,2 C 49 % 1024,7 hPa 0,0 l/m 0,0 km/h (0 Bft) O-SO 115 0 min 9,1 C 20,2 C
01.09.2012 13:28 20,9 C 50 % 1024,7 hPa 0,0 l/m 0,1 km/h (0 Bft) O-NO 70 0 min 10,1 C 20,9 C
01.09.2012 13:33 21,8 C 48 % 1024,7 hPa 0,0 l/m 0,5 km/h (0 Bft) O 95 0 min 10,3 C 21,8 C
01.09.2012 13:38 21,4 C 46 % 1024,7 hPa 0,0 l/m 0,0 km/h (0 Bft) N-NW 345 0 min 9,3 C 21,4 C
01.09.2012 13:43 20,2 C 48 % 1024,7 hPa 0,0 l/m 0,0 km/h (0 Bft) N-NW 345 0 min 8,8 C 20,2 C
01.09.2012 13:48 19,8 C 49 % 1024,7 hPa 0,0 l/m 0,1 km/h (0 Bft) NW 320 0 min 8,8 C 19,8 C
01.09.2012 13:53 19,4 C 50 % 1024,7 hPa 0,0 l/m 3,9 km/h (1 Bft) W 270 0 min 8,7 C 19,4 C
01.09.2012 13:58 19,8 C 49 % 1024,7 hPa 0,0 l/m 9,7 km/h (2 Bft) N-NW 330 0 min 8,8 C 18,5 C
01.09.2012 14:03 19,6 C 49 % 1024,7 hPa 0,0 l/m 0,7 km/h (0 Bft) W-NW 300 0 min 8,6 C 19,6 C
01.09.2012 14:09 19,2 C 49 % 1024,7 hPa 0,0 l/m 0,0 km/h (0 Bft) O 85 0 min 8,2 C 19,2 C
01.09.2012 14:14 19,3 C 50 % 1024,7 hPa 0,0 l/m 0,0 km/h (0 Bft) O 95 0 min 8,6 C 19,3 C
01.09.2012 14:19 19,7 C 51 % 1024,7 hPa 0,0 l/m 0,0 km/h (0 Bft) O 90 0 min 9,3 C 19,7 C
01.09.2012 14:24 19,9 C 51 % 1024,7 hPa 0,0 l/m 0,0 km/h (0 Bft) O 85 0 min 9,5 C 19,9 C
01.09.2012 14:29 19,9 C 51 % 1024,7 hPa 0,0 l/m 0,0 km/h (0 Bft) O 90 0 min 9,5 C 19,9 C
01.09.2012 14:34 19,9 C 51 % 1024,7 hPa 0,0 l/m 0,0 km/h (0 Bft) O 90 0 min 9,5 C 19,9 C
01.09.2012 14:39 19,8 C 51 % 1024,7 hPa 0,0 l/m 0,0 km/h (0 Bft) O 90 0 min 9,4 C 19,8 C
01.09.2012 14:44 19,6 C 51 % 1024,7 hPa 0,0 l/m 0,0 km/h (0 Bft) O 90 0 min 9,2 C 19,6 C
01.09.2012 14:49 19,3 C 51 % 1024,7 hPa 0,0 l/m 0,0 km/h (0 Bft) O-SO 110 0 min 8,9 C 19,3 C
01.09.2012 14:54 19,1 C 51 % 1024,7 hPa 0,0 l/m 0,0 km/h (0 Bft) O-SO 105 0 min 8,7 C 19,1 C
01.09.2012 14:59 19,2 C 52 % 1024,7 hPa 0,0 l/m 0,0 km/h (0 Bft) O-SO 105 0 min 9,1 C 19,2 C
01.09.2012 15:04 19,5 C 52 % 1024,7 hPa 0,0 l/m 0,0 km/h (0 Bft) O-SO 115 0 min 9,4 C 19,5 C
01.09.2012 15:09 19,6 C 52 % 1024,7 hPa 0,0 l/m 0,0 km/h (0 Bft) O 100 0 min 9,5 C 19,6 C
01.09.2012 15:14 19,6 C 50 % 1024,7 hPa 0,0 l/m 0,0 km/h (0 Bft) O-SO 105 0 min 8,9 C 19,6 C
01.09.2012 15:19 19,4 C 51 % 1024,7 hPa 0,0 l/m 0,0 km/h (0 Bft) O 100 0 min 9,0 C 19,4 C
01.09.2012 15:24 19,5 C 51 % 1024,7 hPa 0,0 l/m 0,0 km/h (0 Bft) O 100 0 min 9,1 C 19,5 C
01.09.2012 15:29 19,5 C 51 % 1024,7 hPa 0,0 l/m 0,0 km/h (0 Bft) O 100 0 min 9,1 C 19,5 C
01.09.2012 15:34 19,6 C 51 % 1024,7 hPa 0,0 l/m 0,0 km/h (0 Bft) O 100 0 min 9,2 C 19,6 C
01.09.2012 15:39 19,8 C 51 % 1024,7 hPa 0,0 l/m 0,0 km/h (0 Bft) O-SO 105 0 min 9,4 C 19,8 C
01.09.2012 15:44 20,0 C 50 % 1024,7 hPa 0,0 l/m 0,0 km/h (0 Bft) SO 140 0 min 9,3 C 20,0 C
01.09.2012 15:49 20,4 C 50 % 1024,7 hPa 0,0 l/m 0,0 km/h (0 Bft) S-SO 155 0 min 9,6 C 20,4 C
01.09.2012 15:54 20,5 C 50 % 1024,7 hPa 0,0 l/m 0,0 km/h (0 Bft) S-SO 160 0 min 9,7 C 20,5 C
01.09.2012 15:59 20,7 C 49 % 1024,7 hPa 0,0 l/m 0,1 km/h (0 Bft) SO 145 0 min 9,6 C 20,7 C
01.09.2012 16:04 20,7 C 49 % 1024,7 hPa 0,0 l/m 0,5 km/h (0 Bft) SO 125 0 min 9,6 C 20,7 C
01.09.2012 16:09 20,5 C 48 % 1024,7 hPa 0,0 l/m 0,0 km/h (0 Bft) O-SO 110 0 min 9,1 C 20,5 C
01.09.2012 16:14 20,5 C 48 % 1024,7 hPa 0,0 l/m 0,3 km/h (0 Bft) SO 130 0 min 9,1 C 20,5 C
01.09.2012 16:19 20,6 C 48 % 1024,7 hPa 0,0 l/m 0,3 km/h (0 Bft) O 95 0 min 9,2 C 20,6 C
01.09.2012 16:24 21,1 C 46 % 1024,7 hPa 0,0 l/m 0,1 km/h (0 Bft) O 90 0 min 9,0 C 21,1 C
01.09.2012 16:29 22,0 C 42 % 1024,7 hPa 0,0 l/m 0,5 km/h (0 Bft) SO 140 0 min 8,5 C 22,0 C
01.09.2012 16:34 22,3 C 42 % 1024,7 hPa 0,0 l/m 0,4 km/h (0 Bft) S-SO 155 0 min 8,8 C 22,3 C
01.09.2012 16:39 21,5 C 42 % 1024,7 hPa 0,0 l/m 0,1 km/h (0 Bft) S 185 0 min 8,0 C 21,5 C
01.09.2012 16:44 21,1 C 44 % 1024,7 hPa 0,0 l/m 0,0 km/h (0 Bft) O-SO 110 0 min 8,4 C 21,1 C
01.09.2012 16:49 20,9 C 46 % 1024,7 hPa 0,0 l/m 0,0 km/h (0 Bft) S-SO 150 0 min 8,8 C 20,9 C
01.09.2012 16:54 20,8 C 46 % 1024,7 hPa 0,0 l/m 0,0 km/h (0 Bft) SO 145 0 min 8,8 C 20,8 C
01.09.2012 16:59 20,6 C 47 % 1024,7 hPa 0,0 l/m 0,0 km/h (0 Bft) S 185 0 min 8,9 C 20,6 C
01.09.2012 17:04 20,6 C 47 % 1024,7 hPa 0,0 l/m 0,0 km/h (0 Bft) S 185 0 min 8,9 C 20,6 C
01.09.2012 17:09 20,4 C 47 % 1024,7 hPa 0,0 l/m 0,0 km/h (0 Bft) W-SW 240 0 min 8,7 C 20,4 C
01.09.2012 17:14 20,4 C 47 % 1024,7 hPa 0,0 l/m 0,0 km/h (0 Bft) W-SW 240 0 min 8,7 C 20,4 C
01.09.2012 17:19 20,4 C 47 % 1024,7 hPa 0,0 l/m 0,0 km/h (0 Bft) S-SW 210 0 min 8,7 C 20,4 C
01.09.2012 17:24 20,4 C 47 % 1024,7 hPa 0,0 l/m 0,0 km/h (0 Bft) SO 145 0 min 8,7 C 20,4 C
01.09.2012 17:29 20,4 C 47 % 1024,7 hPa 0,0 l/m 0,0 km/h (0 Bft) S 170 0 min 8,7 C 20,4 C
01.09.2012 17:34 20,4 C 47 % 1024,7 hPa 0,0 l/m 0,0 km/h (0 Bft) S 170 0 min 8,7 C 20,4 C
01.09.2012 17:39 20,4 C 47 % 1024,7 hPa 0,0 l/m 0,0 km/h (0 Bft) S 170 0 min 8,7 C 20,4 C
01.09.2012 17:44 20,3 C 47 % 1024,7 hPa 0,0 l/m 0,0 km/h (0 Bft) S 185 0 min 8,6 C 20,3 C
01.09.2012 17:49 20,1 C 47 % 1024,7 hPa 0,0 l/m 0,0 km/h (0 Bft) SO 145 0 min 8,4 C 20,1 C
01.09.2012 17:54 20,0 C 47 % 1024,7 hPa 0,0 l/m 0,1 km/h (0 Bft) SO 140 0 min 8,3 C 20,0 C
01.09.2012 17:59 19,8 C 48 % 1024,7 hPa 0,0 l/m 0,4 km/h (0 Bft) SO 125 0 min 8,5 C 19,8 C
01.09.2012 18:04 19,7 C 48 % 1024,7 hPa 0,0 l/m 0,0 km/h (0 Bft) O-SO 105 0 min 8,4 C 19,7 C
01.09.2012 18:09 19,6 C 49 % 1024,7 hPa 0,0 l/m 0,0 km/h (0 Bft) O 100 0 min 8,6 C 19,6 C
01.09.2012 18:14 19,5 C 49 % 1024,7 hPa 0,0 l/m 0,0 km/h (0 Bft) O 95 0 min 8,5 C 19,5 C
01.09.2012 18:18 19,4 C 49 % 1024,7 hPa 0,0 l/m 0,1 km/h (0 Bft) O-SO 115 0 min 8,4 C 19,4 C
01.09.2012 18:23 19,1 C 48 % 1024,7 hPa 0,0 l/m 0,1 km/h (0 Bft) S-SO 160 0 min 7,8 C 19,1 C
01.09.2012 18:28 19,1 C 48 % 1024,7 hPa 0,0 l/m 0,1 km/h (0 Bft) S-SO 150 0 min 7,8 C 19,1 C
01.09.2012 18:33 18,8 C 49 % 1024,7 hPa 0,0 l/m 0,0 km/h (0 Bft) S-SO 150 0 min 7,9 C 18,8 C
01.09.2012 18:38 18,7 C 49 % 1024,7 hPa 0,0 l/m 0,1 km/h (0 Bft) O 95 0 min 7,8 C 18,7 C
01.09.2012 18:43 18,6 C 49 % 1024,7 hPa 0,0 l/m 0,0 km/h (0 Bft) O 95 0 min 7,7 C 18,6 C
01.09.2012 18:48 18,5 C 50 % 1024,7 hPa 0,0 l/m 0,1 km/h (0 Bft) O 90 0 min 7,9 C 18,5 C
01.09.2012 18:53 18,5 C 50 % 1024,7 hPa 0,0 l/m 0,0 km/h (0 Bft) O 85 0 min 7,9 C 18,5 C
01.09.2012 18:58 18,4 C 50 % 1024,7 hPa 0,0 l/m 0,0 km/h (0 Bft) O 85 0 min 7,8 C 18,4 C
01.09.2012 19:03 18,4 C 50 % 1024,7 hPa 0,0 l/m 0,0 km/h (0 Bft) O 85 0 min 7,8 C 18,4 C
01.09.2012 19:08 17,9 C 51 % 1024,7 hPa 0,0 l/m 0,0 km/h (0 Bft) O 85 0 min 7,6 C 17,9 C
01.09.2012 19:13 17,6 C 51 % 1024,7 hPa 0,0 l/m 0,0 km/h (0 Bft) O 85 0 min 7,3 C 17,6 C
01.09.2012 19:18 17,5 C 51 % 1024,7 hPa 0,0 l/m 0,0 km/h (0 Bft) O 85 0 min 7,3 C 17,5 C
01.09.2012 19:23 17,2 C 51 % 1024,7 hPa 0,0 l/m 0,0 km/h (0 Bft) O 85 0 min 7,0 C 17,2 C
01.09.2012 19:28 16,8 C 52 % 1024,7 hPa 0,0 l/m 0,0 km/h (0 Bft) O 85 0 min 6,9 C 16,8 C
01.09.2012 19:33 16,6 C 52 % 1024,7 hPa 0,0 l/m 0,0 km/h (0 Bft) O 85 0 min 6,7 C 16,6 C
01.09.2012 19:38 16,1 C 53 % 1024,7 hPa 0,0 l/m 0,0 km/h (0 Bft) O 85 0 min 6,5 C 16,1 C
01.09.2012 19:43 15,8 C 54 % 1024,7 hPa 0,0 l/m 0,0 km/h (0 Bft) O 85 0 min 6,5 C 15,8 C
01.09.2012 19:48 15,5 C 54 % 1024,7 hPa 0,0 l/m 0,0 km/h (0 Bft) O 85 0 min 6,2 C 15,5 C
01.09.2012 19:53 15,4 C 54 % 1024,7 hPa 0,0 l/m 0,0 km/h (0 Bft) O 85 0 min 6,1 C 15,4 C
01.09.2012 19:58 15,0 C 54 % 1024,7 hPa 0,0 l/m 0,0 km/h (0 Bft) O 85 0 min 5,8 C 15,0 C
01.09.2012 20:03 14,7 C 55 % 1024,7 hPa 0,0 l/m 0,0 km/h (0 Bft) O 85 0 min 5,8 C 14,7 C
01.09.2012 20:08 14,6 C 55 % 1024,7 hPa 0,0 l/m 0,0 km/h (0 Bft) O 85 0 min 5,7 C 14,6 C
01.09.2012 20:13 14,3 C 56 % 1024,7 hPa 0,0 l/m 0,0 km/h (0 Bft) O 85 0 min 5,6 C 14,3 C
01.09.2012 20:18 13,9 C 57 % 1024,7 hPa 0,0 l/m 0,0 km/h (0 Bft) O 85 0 min 5,5 C 13,9 C
01.09.2012 20:23 13,7 C 58 % 1024,7 hPa 0,0 l/m 0,0 km/h (0 Bft) O 85 0 min 5,6 C 13,7 C
01.09.2012 20:28 13,4 C 60 % 1024,7 hPa 0,0 l/m 0,0 km/h (0 Bft) O 95 0 min 5,8 C 13,4 C
01.09.2012 20:34 13,2 C 59 % 1024,7 hPa 0,0 l/m 0,0 km/h (0 Bft) O 90 0 min 5,4 C 13,2 C
01.09.2012 20:39 13,1 C 59 % 1024,7 hPa 0,0 l/m 0,0 km/h (0 Bft) O 90 0 min 5,3 C 13,1 C
01.09.2012 20:44 13,1 C 59 % 1024,7 hPa 0,0 l/m 0,0 km/h (0 Bft) O 90 0 min 5,3 C 13,1 C
01.09.2012 20:49 12,9 C 61 % 1024,7 hPa 0,0 l/m 0,0 km/h (0 Bft) O 85 0 min 5,6 C 12,9 C
01.09.2012 20:54 12,6 C 62 % 1024,7 hPa 0,0 l/m 0,0 km/h (0 Bft) O 90 0 min 5,5 C 12,6 C
01.09.2012 20:59 12,6 C 62 % 1024,7 hPa 0,0 l/m 0,0 km/h (0 Bft) O 90 0 min 5,5 C 12,6 C
01.09.2012 21:04 12,5 C 62 % 1024,7 hPa 0,0 l/m 0,0 km/h (0 Bft) O 85 0 min 5,4 C 12,5 C
01.09.2012 21:09 12,5 C 63 % 1024,7 hPa 0,0 l/m 0,0 km/h (0 Bft) O 95 0 min 5,7 C 12,5 C
01.09.2012 21:14 12,4 C 63 % 1024,7 hPa 0,0 l/m 0,0 km/h (0 Bft) O 85 0 min 5,6 C 12,4 C
01.09.2012 21:19 12,2 C 63 % 1024,7 hPa 0,0 l/m 0,0 km/h (0 Bft) O 85 0 min 5,4 C 12,2 C
01.09.2012 21:24 12,0 C 63 % 1024,7 hPa 0,0 l/m 0,0 km/h (0 Bft) O 85 0 min 5,2 C 12,0 C
01.09.2012 21:29 11,9 C 64 % 1024,7 hPa 0,0 l/m 0,0 km/h (0 Bft) O 85 0 min 5,3 C 11,9 C
01.09.2012 21:34 11,8 C 65 % 1025,7 hPa 0,0 l/m 0,0 km/h (0 Bft) O-SO 105 0 min 5,4 C 11,8 C
01.09.2012 21:39 11,5 C 65 % 1025,7 hPa 0,0 l/m 0,0 km/h (0 Bft) O 95 0 min 5,2 C 11,5 C
01.09.2012 21:44 11,4 C 65 % 1025,7 hPa 0,0 l/m 0,0 km/h (0 Bft) O 100 0 min 5,1 C 11,4 C
01.09.2012 21:49 11,3 C 65 % 1025,7 hPa 0,0 l/m 0,0 km/h (0 Bft) O-SO 105 0 min 5,0 C 11,3 C
01.09.2012 21:54 11,2 C 65 % 1025,7 hPa 0,0 l/m 0,0 km/h (0 Bft) O 95 0 min 4,9 C 11,2 C
01.09.2012 21:59 11,1 C 67 % 1025,7 hPa 0,0 l/m 0,0 km/h (0 Bft) O 95 0 min 5,2 C 11,1 C
01.09.2012 22:04 11,0 C 68 % 1025,7 hPa 0,0 l/m 0,0 km/h (0 Bft) O 90 0 min 5,3 C 11,0 C
01.09.2012 22:09 11,0 C 67 % 1025,7 hPa 0,0 l/m 0,0 km/h (0 Bft) O 95 0 min 5,1 C 11,0 C
01.09.2012 22:13 10,8 C 67 % 1025,7 hPa 0,0 l/m 0,0 km/h (0 Bft) O 90 0 min 4,9 C 10,8 C
01.09.2012 22:18 10,8 C 67 % 1025,7 hPa 0,0 l/m 0,0 km/h (0 Bft) O 95 0 min 4,9 C 10,8 C
01.09.2012 22:23 10,5 C 67 % 1025,7 hPa 0,0 l/m 0,0 km/h (0 Bft) O 95 0 min 4,6 C 10,5 C
01.09.2012 22:29 10,4 C 67 % 1025,7 hPa 0,0 l/m 0,0 km/h (0 Bft) O 90 0 min 4,5 C 10,4 C
01.09.2012 22:34 10,3 C 67 % 1025,7 hPa 0,0 l/m 0,0 km/h (0 Bft) O 90 0 min 4,4 C 10,3 C
01.09.2012 22:39 10,2 C 67 % 1025,7 hPa 0,0 l/m 0,0 km/h (0 Bft) O 90 0 min 4,4 C 10,2 C
01.09.2012 22:44 10,1 C 67 % 1025,7 hPa 0,0 l/m 0,0 km/h (0 Bft) O 90 0 min 4,3 C 10,1 C
01.09.2012 22:48 10,0 C 67 % 1025,7 hPa 0,0 l/m 0,0 km/h (0 Bft) O 90 0 min 4,2 C 10,0 C
01.09.2012 22:53 9,9 C 68 % 1025,7 hPa 0,0 l/m 0,0 km/h (0 Bft) O 90 0 min 4,3 C 9,9 C
01.09.2012 22:58 9,8 C 68 % 1025,7 hPa 0,0 l/m 0,0 km/h (0 Bft) O 90 0 min 4,2 C 9,8 C
01.09.2012 23:04 9,7 C 68 % 1025,7 hPa 0,0 l/m 0,0 km/h (0 Bft) O 90 0 min 4,1 C 9,7 C
01.09.2012 23:09 9,6 C 68 % 1025,7 hPa 0,0 l/m 0,0 km/h (0 Bft) O 90 0 min 4,0 C 9,6 C
01.09.2012 23:14 9,5 C 68 % 1025,7 hPa 0,0 l/m 0,0 km/h (0 Bft) O 90 0 min 3,9 C 9,5 C
01.09.2012 23:19 9,5 C 68 % 1025,7 hPa 0,0 l/m 0,0 km/h (0 Bft) O 90 0 min 3,9 C 9,5 C
01.09.2012 23:23 9,4 C 68 % 1025,7 hPa 0,0 l/m 0,0 km/h (0 Bft) O 90 0 min 3,8 C 9,4 C
01.09.2012 23:28 9,3 C 68 % 1025,7 hPa 0,0 l/m 0,0 km/h (0 Bft) O 90 0 min 3,7 C 9,3 C
01.09.2012 23:33 9,2 C 68 % 1025,7 hPa 0,0 l/m 0,0 km/h (0 Bft) O 90 0 min 3,6 C 9,2 C
01.09.2012 23:38 9,2 C 68 % 1025,7 hPa 0,0 l/m 0,0 km/h (0 Bft) O 90 0 min 3,6 C 9,2 C
01.09.2012 23:43 9,1 C 68 % 1025,7 hPa 0,0 l/m 0,0 km/h (0 Bft) O 90 0 min 3,5 C 9,1 C
01.09.2012 23:48 9,0 C 68 % 1025,7 hPa 0,0 l/m 0,0 km/h (0 Bft) O 90 0 min 3,4 C 9,0 C
01.09.2012 23:54 9,0 C 68 % 1025,7 hPa 0,0 l/m 0,0 km/h (0 Bft) O 90 0 min 3,4 C 9,0 C
01.09.2012 23:59 8,9 C 69 % 1025,7 hPa 0,0 l/m 0,0 km/h (0 Bft) O 90 0 min 3,5 C 8,9 C
_ Min-Zeit 00:03 16:29 00:03 - 02:13 - - - 23:48 00:08
Minimum _ 0,0 C 42 % 1021,7 hPa - 0,0 km/h (0 Bft) - - - 3,4 C 7,9 C
_ Max-Zeit 16:34 01:19 21:34 00:03 13:08 - - 00:03 07:58 16:34
Maximum _ 22,3 C 83 % 1025,7 hPa 0,0 l/m 15,0 km/h
W-SW (3 Bft)
- - 0 min 10,9 C 22,3 C
Durchschnitt _ 15,0 C 65 % 1024,2 hPa #0,0 l/m 1,2 km/h (1 Bft) W - #0 min. 8,1 C 14,9 C